sensor_id;sensor_type;location;lat;lon;timestamp;P1;durP1;ratioP1;P2;durP2;ratioP2
72864;SDS011;61000;48.120;11.548;2023-05-10T00:00:02;1.85;;;1.63;;
72864;SDS011;61000;48.120;11.548;2023-05-10T00:02:39;4.07;;;1.77;;
72864;SDS011;61000;48.120;11.548;2023-05-10T00:05:08;3.63;;;1.45;;
72864;SDS011;61000;48.120;11.548;2023-05-10T00:07:35;1.70;;;1.60;;
72864;SDS011;61000;48.120;11.548;2023-05-10T00:10:04;1.67;;;1.40;;
72864;SDS011;61000;48.120;11.548;2023-05-10T00:12:31;1.40;;;1.25;;
72864;SDS011;61000;48.120;11.548;2023-05-10T00:14:58;2.05;;;1.67;;
72864;SDS011;61000;48.120;11.548;2023-05-10T00:17:25;1.65;;;1.50;;
72864;SDS011;61000;48.120;11.548;2023-05-10T00:19:53;1.58;;;1.48;;
72864;SDS011;61000;48.120;11.548;2023-05-10T00:22:20;1.27;;;1.20;;
72864;SDS011;61000;48.120;11.548;2023-05-10T00:24:47;1.55;;;1.45;;
72864;SDS011;61000;48.120;11.548;2023-05-10T00:27:14;2.28;;;1.60;;
72864;SDS011;61000;48.120;11.548;2023-05-10T00:29:41;1.55;;;1.45;;
72864;SDS011;61000;48.120;11.548;2023-05-10T00:32:08;3.38;;;1.52;;
72864;SDS011;61000;48.120;11.548;2023-05-10T00:34:35;1.60;;;1.50;;
72864;SDS011;61000;48.120;11.548;2023-05-10T00:37:03;1.58;;;1.48;;
72864;SDS011;61000;48.120;11.548;2023-05-10T00:39:32;1.75;;;1.38;;
72864;SDS011;61000;48.120;11.548;2023-05-10T00:41:58;1.50;;;1.40;;
72864;SDS011;61000;48.120;11.548;2023-05-10T00:44:26;1.15;;;1.08;;
72864;SDS011;61000;48.120;11.548;2023-05-10T00:46:53;1.40;;;1.27;;
72864;SDS011;61000;48.120;11.548;2023-05-10T00:49:20;2.03;;;1.40;;
72864;SDS011;61000;48.120;11.548;2023-05-10T00:51:47;1.65;;;1.27;;
72864;SDS011;61000;48.120;11.548;2023-05-10T00:54:16;1.52;;;1.42;;
72864;SDS011;61000;48.120;11.548;2023-05-10T00:56:43;1.60;;;1.40;;
72864;SDS011;61000;48.120;11.548;2023-05-10T00:59:14;1.50;;;1.35;;
72864;SDS011;61000;48.120;11.548;2023-05-10T01:01:41;1.48;;;1.38;;
72864;SDS011;61000;48.120;11.548;2023-05-10T01:04:08;1.02;;;1.02;;
72864;SDS011;61000;48.120;11.548;2023-05-10T01:06:37;0.90;;;0.90;;
72864;SDS011;61000;48.120;11.548;2023-05-10T01:09:04;1.40;;;1.30;;
72864;SDS011;61000;48.120;11.548;2023-05-10T01:11:32;1.92;;;1.00;;
72864;SDS011;61000;48.120;11.548;2023-05-10T01:14:01;1.30;;;1.20;;
72864;SDS011;61000;48.120;11.548;2023-05-10T01:16:29;1.35;;;1.13;;
72864;SDS011;61000;48.120;11.548;2023-05-10T01:18:58;1.20;;;1.00;;
72864;SDS011;61000;48.120;11.548;2023-05-10T01:21:27;1.08;;;1.00;;
72864;SDS011;61000;48.120;11.548;2023-05-10T01:27:29;1.73;;;1.20;;
72864;SDS011;61000;48.120;11.548;2023-05-10T01:30:50;3.35;;;1.20;;
72864;SDS011;61000;48.120;11.548;2023-05-10T01:33:35;1.17;;;1.08;;
72864;SDS011;61000;48.120;11.548;2023-05-10T01:36:05;1.30;;;1.20;;
72864;SDS011;61000;48.120;11.548;2023-05-10T01:38:38;3.65;;;1.17;;
72864;SDS011;61000;48.120;11.548;2023-05-10T01:41:12;0.93;;;0.90;;
72864;SDS011;61000;48.120;11.548;2023-05-10T01:43:48;1.42;;;1.00;;
72864;SDS011;61000;48.120;11.548;2023-05-10T01:46:22;2.17;;;1.10;;
72864;SDS011;61000;48.120;11.548;2023-05-10T01:48:57;1.05;;;1.00;;
72864;SDS011;61000;48.120;11.548;2023-05-10T01:51:27;1.05;;;0.90;;
72864;SDS011;61000;48.120;11.548;2023-05-10T01:54:02;1.25;;;0.80;;
72864;SDS011;61000;48.120;11.548;2023-05-10T01:56:30;0.90;;;0.90;;
72864;SDS011;61000;48.120;11.548;2023-05-10T01:58:59;0.90;;;0.90;;
72864;SDS011;61000;48.120;11.548;2023-05-10T02:01:31;0.82;;;0.82;;
72864;SDS011;61000;48.120;11.548;2023-05-10T02:04:03;1.17;;;1.08;;
72864;SDS011;61000;48.120;11.548;2023-05-10T02:06:32;1.58;;;1.13;;
72864;SDS011;61000;48.120;11.548;2023-05-10T02:11:29;1.10;;;1.10;;
72864;SDS011;61000;48.120;11.548;2023-05-10T02:13:57;0.93;;;0.93;;
72864;SDS011;61000;48.120;11.548;2023-05-10T02:16:27;1.20;;;1.00;;
72864;SDS011;61000;48.120;11.548;2023-05-10T02:18:55;1.52;;;1.17;;
72864;SDS011;61000;48.120;11.548;2023-05-10T02:21:26;1.00;;;1.00;;
72864;SDS011;61000;48.120;11.548;2023-05-10T02:23:55;1.05;;;1.00;;
72864;SDS011;61000;48.120;11.548;2023-05-10T02:26:24;1.65;;;1.15;;
72864;SDS011;61000;48.120;11.548;2023-05-10T02:28:52;1.00;;;1.00;;
72864;SDS011;61000;48.120;11.548;2023-05-10T02:31:20;4.57;;;0.90;;
72864;SDS011;61000;48.120;11.548;2023-05-10T02:33:48;1.35;;;1.20;;
72864;SDS011;61000;48.120;11.548;2023-05-10T02:36:17;1.83;;;1.05;;
72864;SDS011;61000;48.120;11.548;2023-05-10T02:38:47;1.70;;;1.10;;
72864;SDS011;61000;48.120;11.548;2023-05-10T02:41:15;1.20;;;1.10;;
72864;SDS011;61000;48.120;11.548;2023-05-10T02:43:43;1.00;;;1.00;;
72864;SDS011;61000;48.120;11.548;2023-05-10T02:46:11;1.15;;;1.10;;
72864;SDS011;61000;48.120;11.548;2023-05-10T02:48:38;0.90;;;0.90;;
72864;SDS011;61000;48.120;11.548;2023-05-10T02:51:06;0.98;;;0.98;;
72864;SDS011;61000;48.120;11.548;2023-05-10T02:53:34;1.05;;;1.05;;
72864;SDS011;61000;48.120;11.548;2023-05-10T02:56:08;0.93;;;0.90;;
72864;SDS011;61000;48.120;11.548;2023-05-10T02:58:38;1.10;;;1.10;;
72864;SDS011;61000;48.120;11.548;2023-05-10T03:01:05;1.02;;;1.00;;
72864;SDS011;61000;48.120;11.548;2023-05-10T03:03:33;1.15;;;1.08;;
72864;SDS011;61000;48.120;11.548;2023-05-10T03:06:00;1.00;;;1.00;;
72864;SDS011;61000;48.120;11.548;2023-05-10T03:08:27;0.90;;;0.90;;
72864;SDS011;61000;48.120;11.548;2023-05-10T03:10:58;1.08;;;1.00;;
72864;SDS011;61000;48.120;11.548;2023-05-10T03:13:44;1.17;;;1.08;;
72864;SDS011;61000;48.120;11.548;2023-05-10T03:16:24;0.80;;;0.80;;
72864;SDS011;61000;48.120;11.548;2023-05-10T03:18:54;0.82;;;0.82;;
72864;SDS011;61000;48.120;11.548;2023-05-10T03:21:28;0.70;;;0.70;;
72864;SDS011;61000;48.120;11.548;2023-05-10T03:23:59;0.95;;;0.95;;
72864;SDS011;61000;48.120;11.548;2023-05-10T03:26:35;1.05;;;0.80;;
72864;SDS011;61000;48.120;11.548;2023-05-10T03:29:09;1.25;;;0.80;;
72864;SDS011;61000;48.120;11.548;2023-05-10T03:31:37;0.90;;;0.90;;
72864;SDS011;61000;48.120;11.548;2023-05-10T03:34:05;1.42;;;1.10;;
72864;SDS011;61000;48.120;11.548;2023-05-10T03:36:32;1.55;;;1.00;;
72864;SDS011;61000;48.120;11.548;2023-05-10T03:38:59;1.30;;;1.00;;
72864;SDS011;61000;48.120;11.548;2023-05-10T03:41:27;0.85;;;0.85;;
72864;SDS011;61000;48.120;11.548;2023-05-10T03:43:55;0.90;;;0.90;;
72864;SDS011;61000;48.120;11.548;2023-05-10T03:46:22;1.02;;;0.93;;
72864;SDS011;61000;48.120;11.548;2023-05-10T03:48:52;1.80;;;0.73;;
72864;SDS011;61000;48.120;11.548;2023-05-10T03:51:22;0.70;;;0.70;;
72864;SDS011;61000;48.120;11.548;2023-05-10T03:53:53;0.88;;;0.80;;
72864;SDS011;61000;48.120;11.548;2023-05-10T03:56:20;0.77;;;0.77;;
72864;SDS011;61000;48.120;11.548;2023-05-10T03:58:47;1.48;;;0.90;;
72864;SDS011;61000;48.120;11.548;2023-05-10T04:01:15;1.25;;;1.00;;
72864;SDS011;61000;48.120;11.548;2023-05-10T04:03:42;0.90;;;0.90;;
72864;SDS011;61000;48.120;11.548;2023-05-10T04:06:11;0.82;;;0.82;;
72864;SDS011;61000;48.120;11.548;2023-05-10T04:08:37;0.98;;;0.90;;
72864;SDS011;61000;48.120;11.548;2023-05-10T04:11:05;1.00;;;0.80;;
72864;SDS011;61000;48.120;11.548;2023-05-10T04:13:33;0.98;;;0.98;;
72864;SDS011;61000;48.120;11.548;2023-05-10T04:16:00;0.82;;;0.82;;
72864;SDS011;61000;48.120;11.548;2023-05-10T04:18:28;1.48;;;1.00;;
72864;SDS011;61000;48.120;11.548;2023-05-10T04:21:00;1.02;;;1.02;;
72864;SDS011;61000;48.120;11.548;2023-05-10T04:23:30;2.60;;;1.15;;
72864;SDS011;61000;48.120;11.548;2023-05-10T04:26:00;1.60;;;0.80;;
72864;SDS011;61000;48.120;11.548;2023-05-10T04:28:27;0.80;;;0.80;;
72864;SDS011;61000;48.120;11.548;2023-05-10T04:31:00;2.72;;;1.00;;
72864;SDS011;61000;48.120;11.548;2023-05-10T04:33:29;0.80;;;0.80;;
72864;SDS011;61000;48.120;11.548;2023-05-10T04:36:06;1.65;;;0.80;;
72864;SDS011;61000;48.120;11.548;2023-05-10T04:38:33;0.90;;;0.90;;
72864;SDS011;61000;48.120;11.548;2023-05-10T04:41:03;0.88;;;0.88;;
72864;SDS011;61000;48.120;11.548;2023-05-10T04:43:31;2.47;;;0.85;;
72864;SDS011;61000;48.120;11.548;2023-05-10T04:45:58;0.80;;;0.80;;
72864;SDS011;61000;48.120;11.548;2023-05-10T04:48:25;1.23;;;0.88;;
72864;SDS011;61000;48.120;11.548;2023-05-10T04:50:54;1.02;;;0.80;;
72864;SDS011;61000;48.120;11.548;2023-05-10T04:53:23;0.80;;;0.70;;
72864;SDS011;61000;48.120;11.548;2023-05-10T04:55:58;1.10;;;1.00;;
72864;SDS011;61000;48.120;11.548;2023-05-10T04:58:25;1.10;;;1.10;;
72864;SDS011;61000;48.120;11.548;2023-05-10T05:00:52;0.80;;;0.80;;
72864;SDS011;61000;48.120;11.548;2023-05-10T05:03:20;0.70;;;0.70;;
72864;SDS011;61000;48.120;11.548;2023-05-10T05:05:50;1.38;;;1.00;;
72864;SDS011;61000;48.120;11.548;2023-05-10T05:08:22;0.80;;;0.80;;
72864;SDS011;61000;48.120;11.548;2023-05-10T05:10:49;0.80;;;0.80;;
72864;SDS011;61000;48.120;11.548;2023-05-10T05:13:16;0.82;;;0.82;;
72864;SDS011;61000;48.120;11.548;2023-05-10T05:15:43;0.70;;;0.70;;
72864;SDS011;61000;48.120;11.548;2023-05-10T05:18:46;2.78;;;0.90;;
72864;SDS011;61000;48.120;11.548;2023-05-10T05:21:13;0.80;;;0.80;;
72864;SDS011;61000;48.120;11.548;2023-05-10T05:23:46;1.60;;;0.90;;
72864;SDS011;61000;48.120;11.548;2023-05-10T05:26:22;1.65;;;0.95;;
72864;SDS011;61000;48.120;11.548;2023-05-10T05:28:51;0.80;;;0.80;;
72864;SDS011;61000;48.120;11.548;2023-05-10T05:31:19;0.75;;;0.75;;
72864;SDS011;61000;48.120;11.548;2023-05-10T05:33:46;0.70;;;0.70;;
72864;SDS011;61000;48.120;11.548;2023-05-10T05:36:23;0.70;;;0.70;;
72864;SDS011;61000;48.120;11.548;2023-05-10T05:38:52;0.98;;;0.90;;
72864;SDS011;61000;48.120;11.548;2023-05-10T05:41:19;0.90;;;0.90;;
72864;SDS011;61000;48.120;11.548;2023-05-10T05:43:46;0.90;;;0.90;;
72864;SDS011;61000;48.120;11.548;2023-05-10T05:46:13;1.27;;;0.88;;
72864;SDS011;61000;48.120;11.548;2023-05-10T05:48:40;1.40;;;1.17;;
72864;SDS011;61000;48.120;11.548;2023-05-10T05:51:07;0.80;;;0.80;;
72864;SDS011;61000;48.120;11.548;2023-05-10T05:53:34;1.73;;;0.95;;
72864;SDS011;61000;48.120;11.548;2023-05-10T05:56:02;1.10;;;0.80;;
72864;SDS011;61000;48.120;11.548;2023-05-10T05:58:30;1.20;;;1.20;;
72864;SDS011;61000;48.120;11.548;2023-05-10T06:00:57;1.40;;;1.13;;
72864;SDS011;61000;48.120;11.548;2023-05-10T06:03:24;1.88;;;1.00;;
72864;SDS011;61000;48.120;11.548;2023-05-10T06:05:51;1.00;;;1.00;;
72864;SDS011;61000;48.120;11.548;2023-05-10T06:08:17;1.38;;;1.27;;
72864;SDS011;61000;48.120;11.548;2023-05-10T06:10:45;1.45;;;1.00;;
72864;SDS011;61000;48.120;11.548;2023-05-10T06:13:13;2.10;;;1.25;;
72864;SDS011;61000;48.120;11.548;2023-05-10T06:15:40;1.75;;;1.20;;
72864;SDS011;61000;48.120;11.548;2023-05-10T06:18:07;4.03;;;1.60;;
72864;SDS011;61000;48.120;11.548;2023-05-10T06:20:34;1.35;;;1.25;;
72864;SDS011;61000;48.120;11.548;2023-05-10T06:23:01;1.45;;;1.25;;
72864;SDS011;61000;48.120;11.548;2023-05-10T06:25:28;1.63;;;1.33;;
72864;SDS011;61000;48.120;11.548;2023-05-10T06:27:55;1.33;;;1.23;;
72864;SDS011;61000;48.120;11.548;2023-05-10T06:30:25;1.35;;;1.17;;
72864;SDS011;61000;48.120;11.548;2023-05-10T06:32:53;1.60;;;1.20;;
72864;SDS011;61000;48.120;11.548;2023-05-10T06:35:20;1.60;;;1.50;;
72864;SDS011;61000;48.120;11.548;2023-05-10T06:37:48;1.38;;;1.27;;
72864;SDS011;61000;48.120;11.548;2023-05-10T06:40:15;1.55;;;1.17;;
72864;SDS011;61000;48.120;11.548;2023-05-10T06:42:42;1.90;;;1.38;;
72864;SDS011;61000;48.120;11.548;2023-05-10T06:45:10;1.50;;;1.40;;
72864;SDS011;61000;48.120;11.548;2023-05-10T06:47:39;1.42;;;1.33;;
72864;SDS011;61000;48.120;11.548;2023-05-10T06:50:06;3.80;;;1.60;;
72864;SDS011;61000;48.120;11.548;2023-05-10T06:52:34;1.35;;;1.25;;
72864;SDS011;61000;48.120;11.548;2023-05-10T06:55:01;2.47;;;1.42;;
72864;SDS011;61000;48.120;11.548;2023-05-10T06:57:28;1.55;;;1.27;;
72864;SDS011;61000;48.120;11.548;2023-05-10T06:59:55;2.42;;;1.60;;
72864;SDS011;61000;48.120;11.548;2023-05-10T07:02:22;1.73;;;1.63;;
72864;SDS011;61000;48.120;11.548;2023-05-10T07:04:50;2.30;;;1.55;;
72864;SDS011;61000;48.120;11.548;2023-05-10T07:07:17;1.50;;;1.40;;
72864;SDS011;61000;48.120;11.548;2023-05-10T07:09:45;2.92;;;1.60;;
72864;SDS011;61000;48.120;11.548;2023-05-10T07:12:12;1.50;;;1.40;;
72864;SDS011;61000;48.120;11.548;2023-05-10T07:14:38;5.38;;;1.83;;
72864;SDS011;61000;48.120;11.548;2023-05-10T07:17:05;1.50;;;1.40;;
72864;SDS011;61000;48.120;11.548;2023-05-10T07:19:32;1.10;;;1.10;;
72864;SDS011;61000;48.120;11.548;2023-05-10T07:22:00;1.40;;;1.27;;
72864;SDS011;61000;48.120;11.548;2023-05-10T07:24:27;3.42;;;1.48;;
72864;SDS011;61000;48.120;11.548;2023-05-10T07:26:55;1.60;;;1.50;;
72864;SDS011;61000;48.120;11.548;2023-05-10T07:29:21;1.40;;;1.30;;
72864;SDS011;61000;48.120;11.548;2023-05-10T07:31:48;2.30;;;1.40;;
72864;SDS011;61000;48.120;11.548;2023-05-10T07:34:15;1.15;;;1.10;;
72864;SDS011;61000;48.120;11.548;2023-05-10T07:36:42;1.15;;;1.05;;
72864;SDS011;61000;48.120;11.548;2023-05-10T07:39:10;1.58;;;1.20;;
72864;SDS011;61000;48.120;11.548;2023-05-10T07:41:37;1.20;;;1.20;;
72864;SDS011;61000;48.120;11.548;2023-05-10T07:44:04;2.25;;;1.23;;
72864;SDS011;61000;48.120;11.548;2023-05-10T07:46:32;1.27;;;1.17;;
72864;SDS011;61000;48.120;11.548;2023-05-10T07:48:59;1.23;;;1.20;;
72864;SDS011;61000;48.120;11.548;2023-05-10T07:51:26;2.80;;;1.35;;
72864;SDS011;61000;48.120;11.548;2023-05-10T07:53:53;1.50;;;1.40;;
72864;SDS011;61000;48.120;11.548;2023-05-10T07:56:21;2.25;;;1.30;;
72864;SDS011;61000;48.120;11.548;2023-05-10T07:58:50;3.05;;;1.17;;
72864;SDS011;61000;48.120;11.548;2023-05-10T08:01:17;1.65;;;1.30;;
72864;SDS011;61000;48.120;11.548;2023-05-10T08:03:44;1.30;;;1.13;;
72864;SDS011;61000;48.120;11.548;2023-05-10T08:06:11;1.40;;;1.30;;
72864;SDS011;61000;48.120;11.548;2023-05-10T08:08:39;2.20;;;1.02;;
72864;SDS011;61000;48.120;11.548;2023-05-10T08:11:06;0.93;;;0.93;;
72864;SDS011;61000;48.120;11.548;2023-05-10T08:13:47;2.58;;;1.08;;
72864;SDS011;61000;48.120;11.548;2023-05-10T08:16:15;1.20;;;1.10;;
72864;SDS011;61000;48.120;11.548;2023-05-10T08:18:43;1.00;;;1.00;;
72864;SDS011;61000;48.120;11.548;2023-05-10T08:21:10;2.83;;;1.10;;
72864;SDS011;61000;48.120;11.548;2023-05-10T08:23:37;2.15;;;1.23;;
72864;SDS011;61000;48.120;11.548;2023-05-10T08:26:04;1.75;;;1.02;;
72864;SDS011;61000;48.120;11.548;2023-05-10T08:28:31;0.80;;;0.80;;
72864;SDS011;61000;48.120;11.548;2023-05-10T08:30:59;6.30;;;1.05;;
72864;SDS011;61000;48.120;11.548;2023-05-10T08:33:26;1.27;;;1.10;;
72864;SDS011;61000;48.120;11.548;2023-05-10T08:35:53;1.33;;;1.10;;
72864;SDS011;61000;48.120;11.548;2023-05-10T08:38:20;1.00;;;1.00;;
72864;SDS011;61000;48.120;11.548;2023-05-10T08:40:46;0.98;;;0.98;;
72864;SDS011;61000;48.120;11.548;2023-05-10T08:43:21;1.40;;;1.30;;
72864;SDS011;61000;48.120;11.548;2023-05-10T08:45:49;1.27;;;1.15;;
72864;SDS011;61000;48.120;11.548;2023-05-10T08:48:19;2.10;;;1.10;;
72864;SDS011;61000;48.120;11.548;2023-05-10T08:50:48;1.48;;;1.20;;
72864;SDS011;61000;48.120;11.548;2023-05-10T08:53:20;1.70;;;1.38;;
72864;SDS011;61000;48.120;11.548;2023-05-10T08:55:49;1.80;;;1.35;;
72864;SDS011;61000;48.120;11.548;2023-05-10T08:58:16;2.22;;;1.10;;
72864;SDS011;61000;48.120;11.548;2023-05-10T09:00:44;1.13;;;1.10;;
72864;SDS011;61000;48.120;11.548;2023-05-10T09:03:13;0.98;;;0.90;;
72864;SDS011;61000;48.120;11.548;2023-05-10T09:05:41;1.70;;;1.10;;
72864;SDS011;61000;48.120;11.548;2023-05-10T09:08:09;2.05;;;0.90;;
72864;SDS011;61000;48.120;11.548;2023-05-10T09:10:38;1.35;;;0.90;;
72864;SDS011;61000;48.120;11.548;2023-05-10T09:13:06;2.58;;;1.00;;
72864;SDS011;61000;48.120;11.548;2023-05-10T09:15:35;1.60;;;1.10;;
72864;SDS011;61000;48.120;11.548;2023-05-10T09:18:02;0.93;;;0.90;;
72864;SDS011;61000;48.120;11.548;2023-05-10T09:20:29;1.02;;;0.90;;
72864;SDS011;61000;48.120;11.548;2023-05-10T09:22:57;0.82;;;0.82;;
72864;SDS011;61000;48.120;11.548;2023-05-10T09:25:24;1.00;;;1.00;;
72864;SDS011;61000;48.120;11.548;2023-05-10T09:27:51;1.67;;;0.90;;
72864;SDS011;61000;48.120;11.548;2023-05-10T09:30:23;0.82;;;0.82;;
72864;SDS011;61000;48.120;11.548;2023-05-10T09:32:51;0.77;;;0.77;;
72864;SDS011;61000;48.120;11.548;2023-05-10T09:35:19;1.05;;;0.95;;
72864;SDS011;61000;48.120;11.548;2023-05-10T09:37:49;1.45;;;0.90;;
72864;SDS011;61000;48.120;11.548;2023-05-10T09:40:18;2.42;;;0.75;;
72864;SDS011;61000;48.120;11.548;2023-05-10T09:42:51;1.33;;;1.00;;
72864;SDS011;61000;48.120;11.548;2023-05-10T09:45:19;1.48;;;0.95;;
72864;SDS011;61000;48.120;11.548;2023-05-10T09:47:46;1.00;;;0.90;;
72864;SDS011;61000;48.120;11.548;2023-05-10T09:50:14;1.77;;;0.85;;
72864;SDS011;61000;48.120;11.548;2023-05-10T09:52:48;3.65;;;0.90;;
72864;SDS011;61000;48.120;11.548;2023-05-10T09:55:18;0.80;;;0.80;;
72864;SDS011;61000;48.120;11.548;2023-05-10T09:57:46;1.00;;;1.00;;
72864;SDS011;61000;48.120;11.548;2023-05-10T10:00:17;2.88;;;0.90;;
72864;SDS011;61000;48.120;11.548;2023-05-10T10:02:45;1.38;;;0.98;;
72864;SDS011;61000;48.120;11.548;2023-05-10T10:05:13;0.82;;;0.82;;
72864;SDS011;61000;48.120;11.548;2023-05-10T10:07:41;1.13;;;1.00;;
72864;SDS011;61000;48.120;11.548;2023-05-10T10:10:08;2.08;;;0.90;;
72864;SDS011;61000;48.120;11.548;2023-05-10T10:12:40;2.25;;;1.10;;
72864;SDS011;61000;48.120;11.548;2023-05-10T10:15:08;1.55;;;1.02;;
72864;SDS011;61000;48.120;11.548;2023-05-10T10:17:35;0.60;;;0.60;;
72864;SDS011;61000;48.120;11.548;2023-05-10T10:20:04;1.13;;;0.85;;
72864;SDS011;61000;48.120;11.548;2023-05-10T10:22:32;1.40;;;0.80;;
72864;SDS011;61000;48.120;11.548;2023-05-10T10:24:59;0.75;;;0.75;;
72864;SDS011;61000;48.120;11.548;2023-05-10T10:27:28;0.98;;;0.90;;
72864;SDS011;61000;48.120;11.548;2023-05-10T10:30:09;0.98;;;0.88;;
72864;SDS011;61000;48.120;11.548;2023-05-10T10:32:47;0.80;;;0.80;;
72864;SDS011;61000;48.120;11.548;2023-05-10T10:35:32;1.95;;;0.77;;
72864;SDS011;61000;48.120;11.548;2023-05-10T10:38:02;1.00;;;0.90;;
72864;SDS011;61000;48.120;11.548;2023-05-10T10:40:29;1.48;;;1.02;;
72864;SDS011;61000;48.120;11.548;2023-05-10T10:42:58;1.67;;;1.00;;
72864;SDS011;61000;48.120;11.548;2023-05-10T10:45:57;0.65;;;0.63;;
72864;SDS011;61000;48.120;11.548;2023-05-10T10:48:36;0.90;;;0.80;;
72864;SDS011;61000;48.120;11.548;2023-05-10T10:51:03;0.80;;;0.80;;
72864;SDS011;61000;48.120;11.548;2023-05-10T10:53:30;0.75;;;0.70;;
72864;SDS011;61000;48.120;11.548;2023-05-10T10:56:02;2.00;;;1.17;;
72864;SDS011;61000;48.120;11.548;2023-05-10T10:58:34;2.53;;;1.95;;
72864;SDS011;61000;48.120;11.548;2023-05-10T11:01:12;4.03;;;1.33;;
72864;SDS011;61000;48.120;11.548;2023-05-10T11:03:41;1.20;;;1.10;;
72864;SDS011;61000;48.120;11.548;2023-05-10T11:06:42;3.58;;;1.13;;
72864;SDS011;61000;48.120;11.548;2023-05-10T11:09:10;2.92;;;1.30;;
72864;SDS011;61000;48.120;11.548;2023-05-10T11:11:48;1.73;;;1.23;;
72864;SDS011;61000;48.120;11.548;2023-05-10T11:14:19;2.05;;;1.25;;
72864;SDS011;61000;48.120;11.548;2023-05-10T11:16:47;1.52;;;1.30;;
72864;SDS011;61000;48.120;11.548;2023-05-10T11:19:15;3.83;;;1.40;;
72864;SDS011;61000;48.120;11.548;2023-05-10T11:21:47;2.83;;;1.40;;
72864;SDS011;61000;48.120;11.548;2023-05-10T11:24:15;1.63;;;1.30;;
72864;SDS011;61000;48.120;11.548;2023-05-10T11:26:44;2.53;;;1.00;;
72864;SDS011;61000;48.120;11.548;2023-05-10T11:29:12;1.23;;;1.05;;
72864;SDS011;61000;48.120;11.548;2023-05-10T11:31:43;1.92;;;1.60;;
72864;SDS011;61000;48.120;11.548;2023-05-10T11:34:11;5.65;;;2.72;;
72864;SDS011;61000;48.120;11.548;2023-05-10T11:36:52;4.80;;;1.75;;
72864;SDS011;61000;48.120;11.548;2023-05-10T11:39:20;3.35;;;1.80;;
72864;SDS011;61000;48.120;11.548;2023-05-10T11:41:47;3.22;;;1.70;;
72864;SDS011;61000;48.120;11.548;2023-05-10T11:44:15;2.25;;;1.88;;
72864;SDS011;61000;48.120;11.548;2023-05-10T11:46:42;2.90;;;2.13;;
72864;SDS011;61000;48.120;11.548;2023-05-10T11:49:09;2.70;;;2.17;;
72864;SDS011;61000;48.120;11.548;2023-05-10T11:51:38;4.53;;;3.05;;
72864;SDS011;61000;48.120;11.548;2023-05-10T11:54:09;2.10;;;1.90;;
72864;SDS011;61000;48.120;11.548;2023-05-10T11:56:37;3.70;;;1.95;;
72864;SDS011;61000;48.120;11.548;2023-05-10T11:59:05;2.72;;;1.77;;
72864;SDS011;61000;48.120;11.548;2023-05-10T12:01:33;2.10;;;1.67;;
72864;SDS011;61000;48.120;11.548;2023-05-10T12:04:00;2.22;;;1.42;;
72864;SDS011;61000;48.120;11.548;2023-05-10T12:06:28;3.67;;;1.30;;
72864;SDS011;61000;48.120;11.548;2023-05-10T12:08:56;2.90;;;1.60;;
72864;SDS011;61000;48.120;11.548;2023-05-10T12:11:25;4.20;;;1.75;;
72864;SDS011;61000;48.120;11.548;2023-05-10T12:13:53;2.72;;;1.73;;
72864;SDS011;61000;48.120;11.548;2023-05-10T12:16:22;4.20;;;1.60;;
72864;SDS011;61000;48.120;11.548;2023-05-10T12:18:50;2.25;;;1.80;;
72864;SDS011;61000;48.120;11.548;2023-05-10T12:21:18;2.17;;;1.98;;
72864;SDS011;61000;48.120;11.548;2023-05-10T12:23:46;1.63;;;1.50;;
72864;SDS011;61000;48.120;11.548;2023-05-10T12:26:13;1.80;;;1.70;;
72864;SDS011;61000;48.120;11.548;2023-05-10T12:28:42;2.13;;;1.92;;
72864;SDS011;61000;48.120;11.548;2023-05-10T12:31:11;1.90;;;1.80;;
72864;SDS011;61000;48.120;11.548;2023-05-10T12:33:39;2.55;;;1.67;;
72864;SDS011;61000;48.120;11.548;2023-05-10T12:36:08;2.58;;;1.80;;
72864;SDS011;61000;48.120;11.548;2023-05-10T12:38:36;3.20;;;1.90;;
72864;SDS011;61000;48.120;11.548;2023-05-10T12:41:04;1.60;;;1.50;;
72864;SDS011;61000;48.120;11.548;2023-05-10T12:43:32;1.60;;;1.50;;
72864;SDS011;61000;48.120;11.548;2023-05-10T12:46:05;1.85;;;1.60;;
72864;SDS011;61000;48.120;11.548;2023-05-10T12:48:34;3.00;;;1.65;;
72864;SDS011;61000;48.120;11.548;2023-05-10T12:51:01;2.45;;;2.00;;
72864;SDS011;61000;48.120;11.548;2023-05-10T12:53:29;3.55;;;1.63;;
72864;SDS011;61000;48.120;11.548;2023-05-10T12:55:58;3.55;;;1.65;;
72864;SDS011;61000;48.120;11.548;2023-05-10T12:58:25;2.70;;;1.98;;
72864;SDS011;61000;48.120;11.548;2023-05-10T13:00:52;2.67;;;1.70;;
72864;SDS011;61000;48.120;11.548;2023-05-10T13:03:22;1.88;;;1.70;;
72864;SDS011;61000;48.120;11.548;2023-05-10T13:05:49;2.10;;;1.90;;
72864;SDS011;61000;48.120;11.548;2023-05-10T13:08:16;4.50;;;1.92;;
72864;SDS011;61000;48.120;11.548;2023-05-10T13:10:43;2.92;;;2.20;;
72864;SDS011;61000;48.120;11.548;2023-05-10T13:13:10;2.55;;;1.90;;
72864;SDS011;61000;48.120;11.548;2023-05-10T13:15:37;3.50;;;1.70;;
72864;SDS011;61000;48.120;11.548;2023-05-10T13:18:04;3.10;;;2.00;;
72864;SDS011;61000;48.120;11.548;2023-05-10T13:20:32;2.53;;;2.00;;
72864;SDS011;61000;48.120;11.548;2023-05-10T13:22:59;4.63;;;2.70;;
72864;SDS011;61000;48.120;11.548;2023-05-10T13:25:27;2.40;;;2.05;;
72864;SDS011;61000;48.120;11.548;2023-05-10T13:27:54;2.88;;;1.75;;
72864;SDS011;61000;48.120;11.548;2023-05-10T13:30:21;2.40;;;2.20;;
72864;SDS011;61000;48.120;11.548;2023-05-10T13:32:48;3.47;;;1.95;;
72864;SDS011;61000;48.120;11.548;2023-05-10T13:35:15;3.35;;;1.98;;
72864;SDS011;61000;48.120;11.548;2023-05-10T13:37:44;3.47;;;2.00;;
72864;SDS011;61000;48.120;11.548;2023-05-10T13:40:10;3.90;;;1.92;;
72864;SDS011;61000;48.120;11.548;2023-05-10T13:42:38;1.83;;;1.73;;
72864;SDS011;61000;48.120;11.548;2023-05-10T13:45:05;2.03;;;1.58;;
72864;SDS011;61000;48.120;11.548;2023-05-10T13:47:33;1.63;;;1.50;;
72864;SDS011;61000;48.120;11.548;2023-05-10T13:50:00;3.15;;;2.33;;
72864;SDS011;61000;48.120;11.548;2023-05-10T13:52:27;5.35;;;2.40;;
72864;SDS011;61000;48.120;11.548;2023-05-10T13:54:55;2.58;;;1.90;;
72864;SDS011;61000;48.120;11.548;2023-05-10T13:57:22;1.77;;;1.67;;
72864;SDS011;61000;48.120;11.548;2023-05-10T13:59:49;2.83;;;1.70;;
72864;SDS011;61000;48.120;11.548;2023-05-10T14:02:16;2.78;;;1.80;;
72864;SDS011;61000;48.120;11.548;2023-05-10T14:04:43;2.53;;;1.80;;
72864;SDS011;61000;48.120;11.548;2023-05-10T14:07:10;4.05;;;2.20;;
72864;SDS011;61000;48.120;11.548;2023-05-10T14:09:39;3.58;;;1.95;;
72864;SDS011;61000;48.120;11.548;2023-05-10T14:12:12;2.15;;;1.92;;
72864;SDS011;61000;48.120;11.548;2023-05-10T14:14:39;3.25;;;1.90;;
72864;SDS011;61000;48.120;11.548;2023-05-10T14:17:06;4.10;;;1.70;;
72864;SDS011;61000;48.120;11.548;2023-05-10T14:19:33;2.80;;;1.98;;
72864;SDS011;61000;48.120;11.548;2023-05-10T14:22:00;2.03;;;1.83;;
72864;SDS011;61000;48.120;11.548;2023-05-10T14:24:27;2.78;;;1.80;;
72864;SDS011;61000;48.120;11.548;2023-05-10T14:26:54;1.83;;;1.65;;
72864;SDS011;61000;48.120;11.548;2023-05-10T14:29:22;1.75;;;1.65;;
72864;SDS011;61000;48.120;11.548;2023-05-10T14:31:49;3.10;;;1.92;;
72864;SDS011;61000;48.120;11.548;2023-05-10T14:34:16;2.75;;;2.25;;
72864;SDS011;61000;48.120;11.548;2023-05-10T14:36:43;2.45;;;1.60;;
72864;SDS011;61000;48.120;11.548;2023-05-10T14:39:10;1.52;;;1.42;;
72864;SDS011;61000;48.120;11.548;2023-05-10T14:41:38;1.70;;;1.60;;
72864;SDS011;61000;48.120;11.548;2023-05-10T14:44:06;1.60;;;1.50;;
72864;SDS011;61000;48.120;11.548;2023-05-10T14:46:34;2.58;;;1.55;;
72864;SDS011;61000;48.120;11.548;2023-05-10T14:49:02;1.42;;;1.20;;